• Join FlightAware (Why Join?)
  • Login
  • US Flag 
06:47PM EDT


 

Airport Tracker/Info


-or-


 

Live Flight TrackerFlight Track Log ✈ FFT756 ✈ 13-May-2013 ✈ KMCO - KGSO

Flight Track Log - Related Links

Times and Time Zones

All times are in EDT time to prevent confusion due to time zone crossing. See the FFT756 flight status page for this flight to view local times or setup timezone preferences in your user account.

Time Position Orientation Groundspeed Altitude Reporting Facility
EDT Latitude Longitude Course Direction KTS MPH feet Rate Location/Type
02:18PM 28.4333 -81.3000 16° North 172 198 700  Level Orlando TRACON
02:19PM 28.4833 -81.2833 16° North 202 232 2,500 2,280 Climbing Orlando TRACON
02:20PM 28.5500 -81.2500 24° Northeast 266 306 5,600 2,760 Climbing Orlando TRACON
02:22PM 28.7033 -81.2950 346° North 274 315 11,600 2,880 Climbing Jacksonville Center
02:23PM 28.7914 -81.3147 349° North 298 343 14,800 2,880 Climbing Jacksonville Center
02:24PM 28.8856 -81.3369 348° North 322 371 17,400 2,280 Climbing Jacksonville Center
02:25PM 28.9819 -81.3592 349° North 341 392 19,400 2,100 Climbing Jacksonville Center
02:26PM 29.0844 -81.3839 348° North 362 417 21,600 2,280 Climbing Jacksonville Center
02:27PM 29.1931 -81.3989 353° North 375 432 24,000 2,400 Climbing Jacksonville Center
02:28PM 29.2997 -81.4092 355° North 386 444 26,400 1,800 Climbing Jacksonville Center
02:29PM 29.4125 -81.4217 354° North 391 450 27,700 1,380 Climbing Jacksonville Center
02:30PM 29.5294 -81.4319 356° North 407 468 29,200 1,500 Climbing Jacksonville Center
02:31PM 29.6528 -81.4322 360° North 421 484 30,700 1,440 Climbing Jacksonville Center
02:32PM 29.7781 -81.4328 360° North 434 499 32,100 1,920 Climbing Jacksonville Center
02:33PM 29.8992 -81.4333 360° North 441 507 34,600 1,980 Climbing Jacksonville Center
02:34PM 30.0203 -81.4342 360° North 435 501 36,100 1,500 Climbing Jacksonville Center
02:35PM 30.1328 -81.4322 North 422 486 37,700 1,200 Climbing Jacksonville Center
02:36PM 30.2456 -81.4331 360° North 407 468 38,600 600 Climbing Jacksonville Center
02:37PM 30.3625 -81.4314 North 402 463 39,000 180 Climbing Jacksonville Center
02:38PM 30.4919 -81.4342 359° North 409 471 39,000  Level Jacksonville Center
02:39PM 30.6089 -81.4347 360° North 409 471 39,000  Level Jacksonville Center
02:40PM 30.7281 -81.4353 360° North 414 476 39,100  Climbing Jacksonville Center
02:41PM 30.8469 -81.4358 360° North 424 488 39,000 -60 Descending Jacksonville Center
02:42PM 30.9661 -81.4364 360° North 424 488 39,000  Level Jacksonville Center
02:43PM 31.0831 -81.4394 359° North 419 482 39,000  Level Jacksonville Center
02:44PM 31.1997 -81.4378 North 419 482 39,000  Level Jacksonville Center
02:45PM 31.3167 -81.4214 North 419 482 39,000  Level Jacksonville Center
02:46PM 31.4228 -81.3906 14° North 419 482 39,100  Climbing Jacksonville Center
02:47PM 31.5497 -81.3567 13° North 425 489 39,000 -60 Descending Jacksonville Center
02:48PM 31.6536 -81.3306 12° North 425 489 39,000  Level Jacksonville Center
02:49PM 31.7847 -81.2967 12° North 433 498 39,000  Level Jacksonville Center
02:50PM 31.8908 -81.2678 13° North 434 499 39,000 -60 Level Jacksonville Center
02:51PM 32.0117 -81.2364 12° North 434 499 38,900 -60 Descending Jacksonville Center
02:52PM 32.1303 -81.2072 12° North 439 505 38,900  Level Jacksonville Center
02:53PM 32.2469 -81.1953 North 424 488 38,900  Level Jacksonville Center
02:54PM 32.3617 -81.1833 North 419 482 38,900  Level Jacksonville Center
02:55PM 32.4806 -81.1761 North 424 488 39,000  Climbing Jacksonville Center
02:56PM 32.6114 -81.1317 16° North 430 495 39,000  Level Jacksonville Center
02:57PM 32.7172 -81.0803 22° Northeast 445 512 39,000 -60 Level Jacksonville Center
02:58PM 32.8314 -81.0286 21° North 445 512 38,900 -60 Descending Jacksonville Center
02:59PM 32.9411 -80.9742 23° Northeast 440 506 38,900 -420 Level Jacksonville Center
03:00PM 33.0572 -80.9197 21° North 435 501 38,100 -960 Descending Jacksonville Center
03:01PM 33.1647 -80.8653 23° Northeast 429 494 37,000 -1,140 Descending Jacksonville Center
03:02PM 33.2767 -80.8131 21° North 423 487 35,900 -1,020 Descending Jacksonville Center
03:03PM 33.3906 -80.7556 23° Northeast 429 494 35,000 -1,020 Descending Jacksonville Center
03:04PM 33.5042 -80.6906 26° Northeast 440 506 33,900 -1,020 Descending Jacksonville Center
03:05PM 33.6200 -80.6303 23° Northeast 445 512 33,000 -960 Descending Jacksonville Center
03:06PM 33.7339 -80.5775 21° North 445 512 32,000 -1,080 Descending Jacksonville Center
03:07PM 33.8536 -80.5194 22° Northeast 433 498 30,900 -1,020 Descending Jacksonville Center
03:08PM 33.9611 -80.4664 22° Northeast 428 493 30,000 -960 Descending Jacksonville Center
03:09PM 34.0667 -80.4158 22° Northeast 411 473 29,000 -1,020 Descending Jacksonville Center
03:10PM 34.1681 -80.3678 21° North 398 458 28,000 -1,020 Descending Jacksonville Center
03:11PM 34.2650 -80.3222 21° North 387 445 27,000 -1,020 Descending Jacksonville Center
03:12PM 34.3619 -80.2717 23° Northeast 382 440 26,000 -1,200 Descending Jacksonville Center
03:14PM 34.4917 -80.2056 23° Northeast 374 430 24,000 -840 Descending Washington Center
03:15PM 34.5853 -80.1631 20° North 361 415 24,000  Level Washington Center
03:16PM 34.6767 -80.1175 22° Northeast 361 415 24,000 -420 Level Washington Center
03:17PM 34.7681 -80.0694 23° Northeast 361 415 23,200 -540 Descending Washington Center
03:18PM 34.8611 -79.9811 38° Northeast 372 428 23,000 -120 Descending Washington Center
03:19PM 34.9433 -79.8994 39° Northeast 378 435 23,000 -240 Level Washington Center
03:20PM 35.0347 -79.8536 22° Northeast 367 422 22,600 -1,200 Descending Washington Center
03:21PM 35.1281 -79.8128 20° North 355 409 20,600 -2,040 Descending Washington Center
03:23PM 35.1875 -79.6234 69° East  Level FlightAware Approximate
03:30PM 35.8505 -79.8318 328° Northwest  Level FlightAware Approximate
03:31PM 35.9409 -79.8909 321° Northwest  Level FlightAware Approximate
03:32PM 36.0275 -79.9628 332° Northwest  Level FlightAware Approximate
03:33PM 36.1000 -79.9333 15° North  Level FlightAware Approximate
03:34PM 36.1013 -79.9411 15° North  Level Estimated
03:35PM 36.1000 -79.9333 15° North  Level FlightAware Approximate
03:36PM 36.1013 -79.9411 15° North  Level Estimated
03:37PM 36.1000 -79.9333 15° North  Level FlightAware Approximate
03:38PM 36.1013 -79.9411 15° North  Level Estimated
03:39PM 36.1000 -79.9333 15° North  Level FlightAware Approximate
03:40PM 36.1013 -79.9411 15° North  Level Estimated
03:41PM 36.1000 -79.9333 15° North  Level FlightAware Approximate
03:42PM 36.1013 -79.9411 15° North  Level Estimated
03:43PM 36.1000 -79.9333 15° North  Level FlightAware Approximate
03:44PM 36.1013 -79.9411 15° North  Level Estimated
03:45PM 36.1000 -79.9333 15° North  Level FlightAware Approximate